»·PEaware :: HAWG11 KLSV-KLSV

HAWG11 :: KLSV-KLSV

FLIGHT INFORMATION

Flight Status: Arrived
Operator: Unknown
More flights by this operator :: More flights under this callsign
Pilot: Logan D. (20254)
Aircraft: FAIRCHILD A-10 THUNDERBOLT 2
(A10)
More flights by this aircraft type
Origin: KLSV Nellis AFB
United States
Destination: KLSV Nellis AFB
United States
More flights between these airports :: More routes between these airports
Route: FYTTR5 FYTTR INS
File this flight plan on PilotEdge
Remarks: +CW / MANEUVERS IN R-4806W
Altitude:
(Current/Filed)
15,000ft
Speed:
(Current/Filed)
250kts
Departed: 13-Mar-20 08:58 AM
Arrived: 13-Mar-20 10:05 AM
Distance/Time
Traveled:
1nm/1:06
Distance/Time
To Go:
Arrived

Flight Plot

Page will automatically refresh every two minutes.


Map Options




Map Legend


Flown Route
Filed Route
Departure Airport
Arrival Airport
Navaid (VOR, NDB)
Fix

Horizontal Profiles

Position Reports

Time Latitude Longitude Heading Altitude Ground
Speed
13-Mar-20 08:27 36.229865 -115.024945 86 1850ft 0kts
13-Mar-20 08:28 36.229865 -115.024945 86 1850ft 0kts
13-Mar-20 08:29 36.229865 -115.024945 86 1850ft 0kts
13-Mar-20 08:30 36.229865 -115.024945 86 1850ft 0kts
13-Mar-20 08:31 36.229865 -115.024945 86 1850ft 0kts
13-Mar-20 08:32 36.229865 -115.024945 86 1850ft 0kts
13-Mar-20 08:33 36.229865 -115.024945 86 1850ft 0kts
13-Mar-20 08:35 36.229865 -115.024945 86 1850ft 0kts
13-Mar-20 08:36 36.229865 -115.024945 86 1850ft 0kts
13-Mar-20 08:37 36.229865 -115.024945 86 1850ft 0kts
13-Mar-20 08:38 36.229865 -115.024945 86 1850ft 0kts
13-Mar-20 08:39 36.229865 -115.024945 86 1850ft 0kts
13-Mar-20 08:40 36.229865 -115.024945 86 1850ft 0kts
13-Mar-20 08:41 36.229865 -115.024945 86 1850ft 0kts
13-Mar-20 08:42 36.229865 -115.024945 86 1850ft 0kts
13-Mar-20 08:43 36.229865 -115.024945 86 1850ft 0kts
13-Mar-20 08:44 36.229865 -115.024945 86 1850ft 0kts
13-Mar-20 08:45 36.229865 -115.024945 86 1850ft 0kts
13-Mar-20 08:46 36.229865 -115.024945 86 1850ft 0kts
13-Mar-20 08:47 36.229865 -115.024945 86 1850ft 0kts
13-Mar-20 08:48 36.229865 -115.024945 86 1850ft 0kts
13-Mar-20 08:49 36.229865 -115.024945 86 1850ft 0kts
13-Mar-20 08:50 36.229865 -115.024945 86 1850ft 0kts
13-Mar-20 08:51 36.229865 -115.024945 86 1850ft 0kts
13-Mar-20 08:52 36.230077 -115.024824 290 1850ft 4kts
13-Mar-20 08:53 36.230684 -115.028604 270 1850ft 17kts
13-Mar-20 08:54 36.228969 -115.033564 219 1850ft 20kts
13-Mar-20 08:54 36.224632 -115.038243 224 1849ft 20kts
13-Mar-20 08:55 36.223553 -115.042164 309 1848ft 20kts
13-Mar-20 08:57 36.225592 -115.043422 39 1849ft 23kts
13-Mar-20 08:57 36.248633 -115.018493 39 2330ft 182kts
13-Mar-20 08:58 36.289101 -114.972705 42 5040ft 191kts
13-Mar-20 09:00 36.336068 -114.978816 271 7750ft 213kts
13-Mar-20 09:00 36.312962 -115.034946 221 9331ft 236kts
13-Mar-20 09:01 36.263023 -115.092096 235 11328ft 243kts
13-Mar-20 09:02 36.271126 -115.178081 282 12717ft 258kts
13-Mar-20 09:03 36.289040 -115.264474 283 14448ft 254kts
13-Mar-20 09:04 36.307959 -115.353033 283 15170ft 285kts
13-Mar-20 09:05 36.328732 -115.452721 283 15165ft 307kts
13-Mar-20 09:06 36.350254 -115.557031 283 15164ft 313kts
13-Mar-20 09:07 36.371920 -115.662491 283 15164ft 315kts
13-Mar-20 09:08 36.441460 -115.694626 7 15130ft 311kts
13-Mar-20 09:09 36.528338 -115.680394 6 15142ft 315kts
13-Mar-20 09:10 36.603761 -115.669893 2 15117ft 316kts
13-Mar-20 09:11 36.674649 -115.705126 283 15070ft 314kts
13-Mar-20 09:12 36.722739 -115.781046 330 14032ft 291kts
13-Mar-20 09:13 36.803661 -115.797007 8 13597ft 294kts
13-Mar-20 09:14 36.883651 -115.773744 23 13592ft 304kts
13-Mar-20 09:15 36.925601 -115.682425 81 11888ft 343kts
13-Mar-20 09:16 36.888148 -115.598443 179 8445ft 376kts
13-Mar-20 09:17 36.838633 -115.666912 310 6322ft 327kts
13-Mar-20 09:18 36.918186 -115.679700 22 8216ft 282kts
13-Mar-20 09:19 36.907561 -115.603636 178 7902ft 312kts
13-Mar-20 09:20 36.847235 -115.654398 287 7145ft 309kts
13-Mar-20 09:21 36.912001 -115.695403 15 8427ft 295kts
13-Mar-20 09:22 36.925395 -115.605455 162 8126ft 305kts
13-Mar-20 09:23 36.853446 -115.640721 265 7240ft 325kts
13-Mar-20 09:24 36.904452 -115.704521 0 8068ft 308kts
13-Mar-20 09:25 36.928846 -115.624714 96 8115ft 319kts
13-Mar-20 09:26 36.856145 -115.609652 239 8048ft 319kts
13-Mar-20 09:27 36.857085 -115.713885 318 9681ft 278kts
13-Mar-20 09:28 36.918849 -115.690438 77 11726ft 283kts
13-Mar-20 09:29 36.920588 -115.585624 89 12528ft 294kts
13-Mar-20 09:30 36.897928 -115.504897 185 13657ft 310kts
13-Mar-20 09:31 36.813359 -115.536190 190 14030ft 309kts
13-Mar-20 09:32 36.721780 -115.554907 196 11283ft 334kts
13-Mar-20 09:33 36.745288 -115.626935 218 4842ft 360kts
13-Mar-20 09:34 36.749447 -115.606448 351 4849ft 329kts
13-Mar-20 09:35 36.735208 -115.676374 167 8598ft 252kts
13-Mar-20 09:36 36.755856 -115.617889 359 7876ft 259kts
13-Mar-20 09:37 36.822856 -115.656494 274 6954ft 248kts
13-Mar-20 09:38 36.865029 -115.632595 134 6473ft 326kts
13-Mar-20 09:39 36.813442 -115.672094 211 7625ft 251kts
13-Mar-20 09:40 36.804748 -115.592866 144 6121ft 283kts
13-Mar-20 09:41 36.760487 -115.620156 348 7185ft 307kts
13-Mar-20 09:42 36.825515 -115.670388 348 7002ft 296kts
13-Mar-20 09:43 36.847680 -115.627870 165 4624ft 379kts
13-Mar-20 09:44 36.834846 -115.680969 294 7912ft 233kts
13-Mar-20 09:45 36.813713 -115.728454 161 10948ft 256kts
13-Mar-20 09:46 36.746339 -115.681985 159 12904ft 272kts
13-Mar-20 09:47 36.707792 -115.679513 180 12242ft 280kts
13-Mar-20 09:48 36.672963 -115.728302 297 10467ft 316kts
13-Mar-20 09:49 36.717183 -115.763027 358 10470ft 330kts
13-Mar-20 09:50 36.765675 -115.692793 108 9736ft 321kts
13-Mar-20 09:51 36.693876 -115.667946 179 9182ft 269kts
13-Mar-20 09:52 36.620516 -115.673053 183 9086ft 257kts
13-Mar-20 09:53 36.553298 -115.660805 133 9199ft 255kts
13-Mar-20 09:54 36.510905 -115.579189 129 9141ft 302kts
13-Mar-20 09:55 36.458844 -115.503163 126 8861ft 272kts
13-Mar-20 09:57 36.404090 -115.417322 136 7964ft 272kts
13-Mar-20 09:57 36.355856 -115.365618 133 7327ft 285kts
13-Mar-20 09:58 36.316101 -115.282079 111 7024ft 287kts
13-Mar-20 09:59 36.288619 -115.197338 111 6466ft 250kts
13-Mar-20 10:00 36.265007 -115.121577 108 5523ft 221kts
13-Mar-20 10:01 36.229847 -115.100235 202 4657ft 145kts
13-Mar-20 10:02 36.196876 -115.081386 84 3535ft 176kts
13-Mar-20 10:03 36.227576 -115.041178 42 1895ft 152kts
13-Mar-20 10:04 36.245172 -115.021600 116 1860ft 19kts
13-Mar-20 10:05 36.244356 -115.021246 140 1859ft 9kts
13-Mar-20 10:06 36.241374 -115.022776 220 1856ft 22kts
13-Mar-20 10:07 36.237296 -115.027228 220 1853ft 23kts
13-Mar-20 10:08 36.231054 -115.031279 170 1850ft 14kts
13-Mar-20 10:09 36.230509 -115.026432 127 1850ft 7kts
13-Mar-20 10:10 36.229638 -115.024442 87 1850ft 0kts
13-Mar-20 10:11 36.229638 -115.024442 87 1850ft 0kts
13-Mar-20 10:12 36.229638 -115.024442 87 1850ft 0kts
13-Mar-20 10:13 36.229638 -115.024442 87 1850ft 0kts
13-Mar-20 10:14 36.229638 -115.024442 87 1850ft 0kts
13-Mar-20 10:15 36.229638 -115.024442 87 1850ft 0kts
13-Mar-20 10:16 36.229638 -115.024442 87 1850ft 0kts
13-Mar-20 10:17 36.229638 -115.024442 87 1850ft 0kts
13-Mar-20 10:18 36.229638 -115.024442 87 1850ft 0kts

Navigation Log

Ident Type
Flight plan parsing failed, navigation log unavailable